Time;durP1;ratioP1;P1;durP2;ratioP2;P2;SDS_P1;SDS_P2;PMS_P1;PMS_P2;Temp;Humidity;BMP_temperature;BMP_pressure;BME280_temperature;BME280_humidity;BME280_pressure;Samples;Min_cycle;Max_cycle;Signal;HPM_P1;HPM_P2
2021/03/22 00:00:58;;;;;;;13.73;4.10;;;2.90;99.90;;;;;;5108325;28;20201;-61
2021/03/22 00:03:25;;;;;;;13.27;4.37;;;2.90;99.90;;;;;;5103946;28;20288;-59
2021/03/22 00:05:54;;;;;;;13.63;4.73;;;2.90;99.90;;;;;;5093835;28;20683;-58
2021/03/22 00:08:22;;;;;;;10.90;3.93;;;3.00;99.90;;;;;;5093758;28;20246;-60
2021/03/22 00:10:50;;;;;;;16.97;4.20;;;3.10;99.90;;;;;;5093657;28;20307;-61
2021/03/22 00:13:20;;;;;;;14.93;3.63;;;3.10;99.90;;;;;;5101773;28;20300;-60
2021/03/22 00:15:49;;;;;;;14.03;4.17;;;3.20;99.90;;;;;;5095368;28;20243;-60
2021/03/22 00:18:18;;;;;;;16.13;4.10;;;3.10;99.90;;;;;;5112533;28;20286;-59
2021/03/22 00:20:45;;;;;;;10.80;4.27;;;3.20;99.90;;;;;;5113745;28;20250;-60
2021/03/22 00:23:13;;;;;;;12.73;3.80;;;3.20;99.90;;;;;;5113939;28;20226;-60
2021/03/22 00:25:40;;;;;;;15.00;4.07;;;3.10;99.90;;;;;;5113964;28;20564;-60
2021/03/22 00:28:13;;;;;;;19.33;4.27;;;3.00;99.90;;;;;;5113366;28;20210;-60
2021/03/22 00:30:43;;;;;;;13.77;3.57;;;2.90;99.90;;;;;;5113726;28;20194;-60
2021/03/22 00:33:12;;;;;;;15.50;3.77;;;2.90;99.90;;;;;;5113726;28;20265;-59
2021/03/22 00:35:43;;;;;;;15.20;4.00;;;2.80;99.90;;;;;;5113405;28;20215;-62
2021/03/22 00:38:11;;;;;;;18.07;4.17;;;2.80;99.90;;;;;;5113757;28;20597;-60
2021/03/22 00:40:41;;;;;;;20.40;4.47;;;2.70;99.90;;;;;;5112897;28;20632;-60
2021/03/22 00:43:09;;;;;;;16.07;4.03;;;2.70;99.90;;;;;;5111779;28;20577;-59
2021/03/22 00:45:50;;;;;;;14.37;3.33;;;2.60;99.90;;;;;;5111255;28;20221;-59
2021/03/22 00:48:18;;;;;;;11.40;3.13;;;2.50;99.90;;;;;;5112763;28;20260;-59
2021/03/22 00:50:45;;;;;;;15.87;4.63;;;2.50;99.90;;;;;;5112355;28;20681;-61
2021/03/22 00:53:15;;;;;;;18.30;4.50;;;2.50;99.90;;;;;;5112600;28;20301;-59
2021/03/22 00:55:42;;;;;;;11.63;3.90;;;2.60;99.90;;;;;;5112492;28;20237;-58
2021/03/22 00:58:09;;;;;;;15.43;4.10;;;2.60;99.90;;;;;;5112358;28;20210;-61
2021/03/22 01:00:39;;;;;;;13.47;3.77;;;2.70;99.90;;;;;;5112333;28;20203;-59
2021/03/22 01:03:07;;;;;;;14.30;3.60;;;2.70;99.90;;;;;;5112615;27;20199;-60
2021/03/22 01:05:35;;;;;;;15.77;3.53;;;2.60;99.90;;;;;;5112430;28;20200;-60
2021/03/22 01:08:03;;;;;;;16.97;4.47;;;2.60;99.90;;;;;;5112489;28;20330;-60
2021/03/22 01:10:38;;;;;;;15.80;4.67;;;2.60;99.90;;;;;;5112114;28;20228;-60
2021/03/22 01:13:09;;;;;;;12.57;4.33;;;2.70;99.90;;;;;;5111921;28;20218;-60
2021/03/22 01:15:36;;;;;;;13.00;3.77;;;2.70;99.90;;;;;;5111765;28;20325;-61
2021/03/22 01:18:04;;;;;;;13.53;3.40;;;2.90;99.90;;;;;;5111845;28;20233;-59
2021/03/22 01:20:37;;;;;;;11.70;3.90;;;2.80;99.90;;;;;;5111824;28;20301;-60
2021/03/22 01:23:04;;;;;;;17.30;3.80;;;2.90;99.90;;;;;;5112015;28;20179;-61
2021/03/22 01:25:31;;;;;;;17.80;4.13;;;2.90;99.90;;;;;;5112293;28;20207;-61
2021/03/22 01:27:58;;;;;;;15.57;4.13;;;2.80;99.90;;;;;;5111726;28;20326;-61
2021/03/22 01:30:33;;;;;;;15.73;3.83;;;2.60;99.90;;;;;;5111746;28;20259;-60
2021/03/22 01:33:00;;;;;;;13.47;3.60;;;2.60;99.90;;;;;;5111572;28;20733;-61
2021/03/22 01:35:27;;;;;;;10.83;4.43;;;2.60;99.90;;;;;;5112140;28;20258;-61
2021/03/22 01:37:55;;;;;;;11.67;3.47;;;2.70;99.90;;;;;;5112141;28;20273;-61
2021/03/22 01:40:43;;;;;;;14.43;4.80;;;2.60;99.90;;;;;;5112130;28;20307;-61
2021/03/22 01:43:18;;;;;;;20.83;4.30;;;2.70;99.90;;;;;;5111802;28;20195;-61
2021/03/22 01:45:45;;;;;;;11.50;3.87;;;2.70;99.90;;;;;;5111847;28;20303;-60
2021/03/22 01:48:12;;;;;;;14.13;3.60;;;2.70;99.90;;;;;;5112062;28;20289;-61
2021/03/22 01:50:39;;;;;;;14.53;3.93;;;2.80;99.90;;;;;;5111977;28;20274;-60
2021/03/22 01:53:09;;;;;;;11.27;3.70;;;2.80;99.90;;;;;;5113153;28;20310;-60
2021/03/22 01:55:36;;;;;;;17.17;4.30;;;2.80;99.90;;;;;;5115664;28;20852;-61
2021/03/22 01:58:03;;;;;;;11.33;3.17;;;2.90;99.90;;;;;;5115488;28;20242;-61
2021/03/22 02:00:32;;;;;;;9.27;3.63;;;3.00;99.90;;;;;;5115089;28;20287;-59
2021/03/22 02:03:04;;;;;;;13.40;3.50;;;3.00;99.90;;;;;;5115484;28;20653;-60
2021/03/22 02:05:33;;;;;;;14.57;3.40;;;3.10;99.90;;;;;;5115498;28;20185;-59
2021/03/22 02:08:05;;;;;;;10.97;3.50;;;3.20;99.90;;;;;;5115700;28;20298;-60
2021/03/22 02:10:34;;;;;;;13.70;3.37;;;3.30;99.90;;;;;;5113474;28;20238;-61
2021/03/22 02:13:01;;;;;;;12.67;4.00;;;3.40;99.90;;;;;;5094954;28;20319;-60
2021/03/22 02:15:29;;;;;;;13.63;3.87;;;3.40;99.90;;;;;;5094891;28;20292;-60
2021/03/22 02:18:08;;;;;;;18.37;3.87;;;3.50;99.90;;;;;;5095159;28;20254;-61
2021/03/22 02:21:26;;;;;;;12.73;3.50;;;3.40;99.90;;;;;;5095205;28;20189;-61
2021/03/22 02:24:40;;;;;;;12.83;3.37;;;3.30;99.90;;;;;;5063706;28;20231;-60
2021/03/22 02:28:04;;;;;;;15.47;3.73;;;3.40;99.90;;;;;;5094696;28;20843;-59
2021/03/22 02:30:59;;;;;;;17.43;3.97;;;3.60;99.90;;;;;;5094566;28;20235;-60
2021/03/22 02:33:55;;;;;;;14.23;3.40;;;3.60;99.90;;;;;;5094986;28;20570;-60
2021/03/22 02:36:32;;;;;;;14.57;3.50;;;3.60;99.90;;;;;;5094857;28;20181;-59
2021/03/22 02:39:01;;;;;;;15.40;3.50;;;3.70;99.90;;;;;;5094328;28;20228;-60
2021/03/22 02:41:35;;;;;;;16.30;3.73;;;3.80;99.90;;;;;;5094030;28;20296;-60
2021/03/22 02:44:05;;;;;;;13.60;3.60;;;3.80;99.90;;;;;;5093204;28;20820;-60
2021/03/22 02:46:33;;;;;;;11.27;3.03;;;3.70;99.90;;;;;;5094116;28;20223;-60
2021/03/22 02:49:03;;;;;;;19.23;3.80;;;3.60;99.90;;;;;;5094548;28;20213;-60
2021/03/22 02:51:46;;;;;;;11.90;4.03;;;3.70;99.90;;;;;;5094236;28;20292;-59
2021/03/22 02:54:19;;;;;;;14.87;3.90;;;3.80;99.90;;;;;;5094185;28;20206;-60
2021/03/22 02:56:53;;;;;;;13.63;3.60;;;3.90;99.90;;;;;;5094096;28;20614;-59
2021/03/22 02:59:22;;;;;;;13.27;3.90;;;3.90;99.90;;;;;;5093519;28;20230;-61
2021/03/22 03:01:53;;;;;;;13.67;3.40;;;3.90;99.90;;;;;;5094209;28;20299;-59
2021/03/22 03:04:22;;;;;;;15.03;3.67;;;3.90;99.90;;;;;;5093734;28;20182;-60
2021/03/22 03:06:52;;;;;;;11.37;3.57;;;3.90;99.90;;;;;;5094137;28;20209;-60
2021/03/22 03:09:21;;;;;;;11.83;3.27;;;4.00;99.90;;;;;;5094075;28;20238;-59
2021/03/22 03:11:48;;;;;;;12.73;3.63;;;3.90;99.90;;;;;;5093354;28;20232;-60
2021/03/22 03:14:15;;;;;;;12.77;3.40;;;3.90;99.90;;;;;;5093069;28;20221;-60
2021/03/22 03:16:42;;;;;;;12.00;4.37;;;3.90;99.90;;;;;;5093663;28;20677;-60
2021/03/22 03:19:10;;;;;;;12.47;3.33;;;3.90;99.90;;;;;;5093626;28;20653;-59
2021/03/22 03:21:38;;;;;;;22.10;4.07;;;3.90;99.90;;;;;;5093670;28;20692;-60
2021/03/22 03:24:07;;;;;;;14.93;4.00;;;3.90;99.90;;;;;;5094206;28;20283;-60
2021/03/22 03:26:34;;;;;;;14.80;3.53;;;3.90;99.90;;;;;;5093999;28;20197;-59
2021/03/22 03:29:01;;;;;;;14.73;3.80;;;3.90;99.90;;;;;;5095427;28;20545;-59
2021/03/22 03:31:28;;;;;;;10.23;3.23;;;3.90;99.90;;;;;;5101310;28;20220;-59
2021/03/22 03:33:55;;;;;;;14.37;3.43;;;3.90;99.90;;;;;;5101720;28;20222;-59
2021/03/22 03:36:22;;;;;;;14.57;3.60;;;3.90;99.90;;;;;;5093836;28;20760;-60
2021/03/22 03:38:49;;;;;;;15.63;3.77;;;4.00;99.90;;;;;;5092860;28;20303;-61
2021/03/22 03:41:16;;;;;;;15.00;3.60;;;3.90;99.90;;;;;;5093090;28;20201;-60
2021/03/22 03:43:43;;;;;;;11.63;3.40;;;3.90;99.90;;;;;;5092852;28;20207;-59
2021/03/22 03:46:10;;;;;;;12.53;3.47;;;3.90;99.90;;;;;;5093474;28;20284;-61
2021/03/22 03:48:37;;;;;;;15.40;4.30;;;3.80;99.90;;;;;;5093371;28;20194;-60
2021/03/22 03:51:04;;;;;;;13.07;3.17;;;3.90;99.90;;;;;;5093244;28;20238;-59
2021/03/22 03:53:31;;;;;;;15.93;4.47;;;4.00;99.90;;;;;;5093000;28;20304;-60
2021/03/22 03:56:00;;;;;;;14.73;4.10;;;4.00;99.90;;;;;;5093324;28;20293;-61
2021/03/22 03:58:27;;;;;;;13.87;4.27;;;4.00;99.90;;;;;;5092290;28;20304;-59
2021/03/22 04:00:54;;;;;;;10.57;3.60;;;4.10;99.90;;;;;;5092903;28;20661;-58
2021/03/22 04:03:28;;;;;;;13.47;4.20;;;4.10;99.90;;;;;;5092960;28;20281;-59
2021/03/22 04:06:02;;;;;;;14.00;3.83;;;4.20;99.90;;;;;;5093263;28;20646;-59
2021/03/22 04:08:30;;;;;;;15.93;3.63;;;4.10;99.90;;;;;;5093359;28;20252;-60
2021/03/22 04:10:58;;;;;;;11.50;3.80;;;4.10;99.90;;;;;;5092634;28;20272;-60
2021/03/22 04:13:26;;;;;;;14.47;4.73;;;4.00;99.90;;;;;;5092361;28;20332;-60
2021/03/22 04:15:54;;;;;;;15.57;4.10;;;3.90;99.90;;;;;;5091841;28;20298;-59
2021/03/22 04:18:33;;;;;;;13.90;4.00;;;3.90;99.90;;;;;;5092982;28;20184;-59
2021/03/22 04:21:00;;;;;;;12.97;3.50;;;3.90;99.90;;;;;;5092611;28;20759;-60
2021/03/22 04:23:27;;;;;;;12.73;3.30;;;3.90;99.90;;;;;;5092842;28;20231;-60
2021/03/22 04:25:54;;;;;;;16.10;3.70;;;4.10;99.90;;;;;;5092509;28;20265;-59
2021/03/22 04:28:21;;;;;;;14.23;3.70;;;4.20;99.90;;;;;;5091953;28;20232;-59
2021/03/22 04:30:48;;;;;;;15.33;4.03;;;4.20;99.90;;;;;;5091611;28;20221;-60
2021/03/22 04:33:16;;;;;;;19.63;4.40;;;4.10;99.90;;;;;;5092909;28;20713;-60
2021/03/22 04:35:43;;;;;;;7.47;3.07;;;4.00;99.90;;;;;;5093547;28;20203;-60
2021/03/22 04:38:10;;;;;;;17.20;3.90;;;4.10;99.90;;;;;;5093418;28;20608;-60
2021/03/22 04:40:37;;;;;;;12.30;3.80;;;4.10;99.90;;;;;;5093094;28;20618;-59
2021/03/22 04:43:04;;;;;;;11.63;3.97;;;4.10;99.90;;;;;;5093115;28;20192;-60
2021/03/22 04:45:31;;;;;;;14.63;4.33;;;4.10;99.90;;;;;;5093199;28;20243;-60
2021/03/22 04:47:59;;;;;;;16.50;3.63;;;4.10;99.90;;;;;;5093337;28;20200;-60
2021/03/22 04:50:28;;;;;;;11.83;3.63;;;4.10;99.90;;;;;;5092920;28;20204;-59
2021/03/22 04:52:55;;;;;;;15.37;4.63;;;4.00;99.90;;;;;;5093301;28;20301;-60
2021/03/22 04:55:24;;;;;;;16.90;4.10;;;4.00;99.90;;;;;;5092980;28;20726;-60
2021/03/22 04:57:51;;;;;;;12.87;4.53;;;4.00;99.90;;;;;;5093011;28;20287;-60
2021/03/22 05:00:21;;;;;;;10.97;3.77;;;4.10;99.90;;;;;;5092864;28;20299;-59
2021/03/22 05:02:48;;;;;;;14.57;3.30;;;4.10;99.90;;;;;;5092747;28;20230;-59
2021/03/22 05:05:16;;;;;;;14.10;3.60;;;4.20;99.90;;;;;;5092739;28;20205;-60
2021/03/22 05:07:44;;;;;;;15.17;3.73;;;4.20;99.90;;;;;;5092844;28;20676;-59
2021/03/22 05:10:16;;;;;;;14.00;3.90;;;4.20;99.90;;;;;;5092033;28;20678;-59
2021/03/22 05:12:43;;;;;;;15.20;3.60;;;4.20;99.90;;;;;;5089669;28;20207;-59
2021/03/22 05:15:11;;;;;;;17.67;4.63;;;4.10;99.90;;;;;;5092323;28;20717;-61
2021/03/22 05:17:38;;;;;;;15.43;3.70;;;4.20;99.90;;;;;;5092722;28;20228;-60
2021/03/22 05:20:08;;;;;;;20.27;4.23;;;4.20;99.90;;;;;;5092930;28;20327;-60
2021/03/22 05:22:35;;;;;;;13.63;4.60;;;4.20;99.90;;;;;;5092475;28;20291;-60
2021/03/22 05:25:03;;;;;;;15.47;4.40;;;4.20;99.90;;;;;;5092781;28;20221;-61
2021/03/22 05:27:30;;;;;;;19.03;4.13;;;4.30;99.90;;;;;;5094185;28;20556;-61
2021/03/22 05:29:56;;;;;;;13.77;4.87;;;4.30;99.90;;;;;;5096517;28;20702;-60
2021/03/22 05:32:29;;;;;;;18.00;4.37;;;4.20;99.90;;;;;;5096709;28;20301;-61
2021/03/22 05:34:57;;;;;;;12.63;3.40;;;4.30;99.90;;;;;;5096778;28;20297;-60
2021/03/22 05:37:24;;;;;;;17.00;4.27;;;4.30;99.90;;;;;;5096608;28;20292;-61
2021/03/22 05:39:52;;;;;;;14.60;4.20;;;4.30;99.90;;;;;;5096708;28;20198;-62
2021/03/22 05:42:34;;;;;;;15.17;4.37;;;4.30;99.90;;;;;;5095911;28;20736;-61
2021/03/22 05:45:06;;;;;;;14.37;4.40;;;4.30;99.90;;;;;;5096563;28;20616;-60
2021/03/22 05:47:42;;;;;;;17.47;4.37;;;4.30;99.90;;;;;;5096458;28;20190;-61
2021/03/22 05:50:14;;;;;;;19.17;4.30;;;4.30;99.90;;;;;;5096510;28;20189;-61
2021/03/22 05:53:00;;;;;;;14.17;3.90;;;4.40;99.90;;;;;;5076183;28;20278;-61
2021/03/22 05:55:43;;;;;;;16.07;4.73;;;4.40;99.90;;;;;;5075793;28;20186;-61
2021/03/22 05:58:23;;;;;;;17.50;4.37;;;4.50;99.90;;;;;;5075844;28;20189;-61
2021/03/22 06:00:54;;;;;;;17.40;5.20;;;4.50;99.90;;;;;;5075492;28;20284;-60
2021/03/22 06:03:30;;;;;;;18.20;4.23;;;4.40;99.90;;;;;;5075730;28;20611;-61
2021/03/22 06:06:09;;;;;;;15.13;4.17;;;4.50;99.90;;;;;;5075912;28;20186;-61
2021/03/22 06:08:44;;;;;;;17.77;4.50;;;4.50;99.90;;;;;;5075912;28;20193;-61
2021/03/22 06:11:22;;;;;;;17.83;4.87;;;4.50;99.90;;;;;;5075070;28;20327;-61
2021/03/22 06:13:56;;;;;;;14.17;4.30;;;4.50;99.90;;;;;;5075255;28;20234;-61
2021/03/22 06:16:27;;;;;;;10.53;4.03;;;4.70;99.90;;;;;;5075560;28;20189;-61
2021/03/22 06:18:58;;;;;;;11.80;4.30;;;4.70;99.90;;;;;;5075782;28;20196;-60
2021/03/22 06:21:28;;;;;;;11.77;4.27;;;4.60;99.90;;;;;;5075677;28;20795;-62
2021/03/22 06:23:56;;;;;;;13.63;5.27;;;4.60;99.90;;;;;;5075332;28;20331;-61
2021/03/22 06:26:33;;;;;;;16.60;4.97;;;4.60;99.90;;;;;;5075263;28;20236;-60
2021/03/22 06:29:05;;;;;;;15.80;4.83;;;4.50;99.90;;;;;;5075067;28;20235;-61
2021/03/22 06:31:33;;;;;;;12.10;4.57;;;4.60;99.90;;;;;;5075550;28;20278;-61
2021/03/22 06:34:03;;;;;;;15.97;4.10;;;4.50;99.90;;;;;;5075348;28;20260;-61
2021/03/22 06:36:30;;;;;;;16.07;4.77;;;4.50;99.90;;;;;;5076008;28;20260;-60
2021/03/22 06:39:00;;;;;;;17.53;4.47;;;4.50;99.90;;;;;;5074569;28;20240;-60
2021/03/22 06:41:47;;;;;;;14.67;4.63;;;4.60;99.90;;;;;;5075071;28;20243;-61
2021/03/22 06:44:17;;;;;;;20.13;5.27;;;4.70;99.90;;;;;;5075196;28;20187;-61
2021/03/22 06:46:55;;;;;;;15.53;5.23;;;4.80;99.90;;;;;;5074802;28;20604;-62
2021/03/22 06:49:25;;;;;;;12.37;4.83;;;5.00;99.90;;;;;;5074662;28;20225;-61
2021/03/22 06:52:00;;;;;;;20.87;4.93;;;5.10;99.90;;;;;;5089165;28;20250;-61
2021/03/22 06:54:31;;;;;;;16.37;4.23;;;5.30;99.90;;;;;;5094751;28;20625;-60
2021/03/22 06:57:05;;;;;;;20.90;4.50;;;5.30;99.90;;;;;;5094778;28;20220;-60
2021/03/22 06:59:32;;;;;;;16.17;3.90;;;5.30;99.90;;;;;;5094717;28;20201;-62
2021/03/22 07:02:14;;;;;;;16.60;5.03;;;5.20;99.90;;;;;;5094992;28;20287;-60
2021/03/22 07:04:41;;;;;;;15.83;5.13;;;5.00;99.90;;;;;;5095077;28;20259;-61
2021/03/22 07:07:11;;;;;;;12.43;4.17;;;4.90;99.90;;;;;;5095090;28;20547;-60
2021/03/22 07:09:41;;;;;;;14.73;4.37;;;4.90;99.90;;;;;;5094337;28;20214;-61
2021/03/22 07:12:31;;;;;;;16.43;4.57;;;5.00;99.90;;;;;;5094376;28;20233;-61
2021/03/22 07:15:33;;;;;;;15.47;4.47;;;5.00;99.90;;;;;;5094250;28;20761;-60
2021/03/22 07:18:15;;;;;;;12.77;4.40;;;5.10;99.90;;;;;;5094594;28;20214;-60
2021/03/22 07:21:04;;;;;;;15.23;4.63;;;5.00;99.90;;;;;;5094114;28;20255;-61
2021/03/22 07:23:52;;;;;;;14.03;4.10;;;5.10;99.90;;;;;;5094041;28;20645;-60
2021/03/22 07:26:29;;;;;;;15.30;4.87;;;5.10;99.90;;;;;;5093959;28;20213;-60
2021/03/22 07:29:18;;;;;;;18.83;5.43;;;5.20;99.90;;;;;;5093976;28;20226;-61
2021/03/22 07:31:51;;;;;;;14.73;4.97;;;5.10;99.90;;;;;;5094105;28;20221;-61
2021/03/22 07:34:33;;;;;;;15.17;5.37;;;5.10;99.90;;;;;;5093195;28;20313;-60
2021/03/22 07:37:11;;;;;;;16.57;5.53;;;5.20;99.90;;;;;;5092863;28;20194;-61
2021/03/22 07:39:44;;;;;;;12.37;5.07;;;5.30;99.90;;;;;;5090810;28;20304;-62
2021/03/22 07:42:37;;;;;;;18.10;5.10;;;5.40;99.90;;;;;;5093192;28;20215;-61
2021/03/22 07:45:24;;;;;;;10.73;4.73;;;5.40;99.90;;;;;;5098185;28;20179;-62
2021/03/22 07:48:10;;;;;;;16.37;5.67;;;5.40;99.90;;;;;;5094448;28;20222;-61
2021/03/22 07:50:41;;;;;;;16.60;5.50;;;5.40;99.90;;;;;;5089849;28;20195;-60
2021/03/22 07:53:14;;;;;;;13.13;5.20;;;5.60;99.90;;;;;;5090605;28;20619;-61
2021/03/22 07:55:48;;;;;;;15.07;5.40;;;5.60;99.90;;;;;;5090362;28;20283;-61
2021/03/22 07:58:44;;;;;;;14.77;5.17;;;5.50;99.90;;;;;;5090845;28;20220;-60
2021/03/22 08:01:18;;;;;;;16.70;5.80;;;5.50;99.90;;;;;;5089876;28;20190;-60
2021/03/22 08:04:01;;;;;;;17.60;5.73;;;5.50;99.90;;;;;;5090995;28;20266;-60
2021/03/22 08:06:48;;;;;;;14.87;5.90;;;5.20;99.90;;;;;;5090809;28;20588;-60
2021/03/22 08:09:29;;;;;;;14.90;6.00;;;5.10;99.90;;;;;;5090498;28;20386;-59
2021/03/22 08:12:00;;;;;;;15.90;6.80;;;5.30;99.90;;;;;;5090157;28;20752;-61
2021/03/22 08:14:30;;;;;;;20.67;7.13;;;5.50;99.90;;;;;;5090187;28;20304;-60
2021/03/22 08:17:20;;;;;;;18.83;7.33;;;5.50;99.90;;;;;;5090477;28;20248;-64
2021/03/22 08:19:55;;;;;;;18.77;7.57;;;5.60;99.90;;;;;;5090032;28;20207;-64
2021/03/22 08:22:33;;;;;;;25.13;8.80;;;5.60;99.90;;;;;;5090287;28;20289;-64
2021/03/22 08:25:15;;;;;;;21.23;8.80;;;5.50;99.90;;;;;;5089777;28;20191;-61
2021/03/22 08:27:47;;;;;;;21.20;8.37;;;5.60;99.90;;;;;;5090026;28;20235;-61
2021/03/22 08:30:29;;;;;;;19.73;7.93;;;5.80;99.90;;;;;;5089649;28;20192;-61
2021/03/22 08:33:01;;;;;;;18.43;7.27;;;5.80;99.90;;;;;;5089880;28;20644;-61
2021/03/22 08:35:35;;;;;;;18.17;7.53;;;6.00;99.90;;;;;;5089902;28;20207;-60
2021/03/22 08:38:05;;;;;;;19.35;9.07;;;6.20;99.90;;;;;;5088919;28;20453;-60
2021/03/22 08:40:43;;;;;;;19.13;8.07;;;6.20;99.90;;;;;;5088500;28;20689;-59
2021/03/22 08:43:17;;;;;;;17.13;6.63;;;6.30;99.90;;;;;;5088137;28;20203;-60
2021/03/22 08:46:02;;;;;;;13.20;6.60;;;6.50;99.90;;;;;;5089466;28;20223;-59
2021/03/22 08:48:31;;;;;;;15.80;6.57;;;6.40;99.90;;;;;;5089321;28;20184;-59
2021/03/22 08:51:05;;;;;;;20.80;7.27;;;6.50;99.90;;;;;;5088983;28;20204;-62
2021/03/22 08:53:35;;;;;;;14.07;5.97;;;6.70;99.90;;;;;;5088927;28;20274;-62
2021/03/22 08:56:06;;;;;;;18.83;6.50;;;6.70;99.90;;;;;;5089563;28;20284;-61
2021/03/22 08:58:37;;;;;;;16.70;5.70;;;6.80;99.90;;;;;;5089087;28;20287;-60
2021/03/22 09:01:26;;;;;;;17.97;6.17;;;6.80;99.90;;;;;;5089066;28;20282;-60
2021/03/22 09:04:08;;;;;;;14.53;6.10;;;6.90;99.90;;;;;;5089574;28;20187;-60
2021/03/22 09:06:55;;;;;;;16.30;6.77;;;6.70;99.90;;;;;;5089632;28;20192;-60
2021/03/22 09:09:28;;;;;;;16.57;7.00;;;6.70;99.90;;;;;;5089024;28;20694;-59
2021/03/22 09:11:56;;;;;;;14.77;6.07;;;6.60;99.90;;;;;;5088918;28;20273;-59
2021/03/22 09:14:36;;;;;;;19.30;6.80;;;6.80;99.90;;;;;;5089339;28;20215;-60
2021/03/22 09:17:05;;;;;;;16.33;6.10;;;6.90;99.90;;;;;;5089558;28;20297;-60
2021/03/22 09:19:45;;;;;;;23.23;7.03;;;7.10;99.90;;;;;;5089244;28;20187;-59
2021/03/22 09:22:49;;;;;;;18.13;6.93;;;7.10;99.90;;;;;;5089109;28;20206;-59
2021/03/22 09:26:00;;;;;;;12.57;6.53;;;7.30;99.90;;;;;;5089154;28;20635;-60
2021/03/22 09:28:41;;;;;;;16.47;6.60;;;7.40;99.90;;;;;;5088927;28;20180;-60
2021/03/22 09:31:40;;;;;;;18.97;6.63;;;7.30;99.90;;;;;;5089353;28;20188;-60
2021/03/22 09:34:42;;;;;;;13.00;5.83;;;7.40;99.90;;;;;;5089369;28;20273;-60
2021/03/22 09:37:50;;;;;;;18.33;7.40;;;7.40;99.90;;;;;;5089373;28;20326;-63
2021/03/22 09:40:51;;;;;;;19.00;7.83;;;7.60;99.90;;;;;;5089354;28;20192;-63
2021/03/22 09:43:39;;;;;;;16.37;6.77;;;7.80;99.90;;;;;;5088798;28;20736;-63
2021/03/22 09:46:27;;;;;;;14.73;7.00;;;8.10;99.90;;;;;;5089106;28;20591;-60
2021/03/22 09:49:26;;;;;;;15.67;6.70;;;8.30;99.90;;;;;;5089331;28;20234;-62
2021/03/22 09:52:14;;;;;;;17.90;7.37;;;8.50;99.90;;;;;;5054921;28;20227;-60
2021/03/22 09:54:43;;;;;;;17.23;6.77;;;8.70;99.90;;;;;;5088964;28;20209;-60
2021/03/22 09:57:35;;;;;;;17.97;7.40;;;8.80;99.90;;;;;;5089237;28;20277;-61
2021/03/22 10:00:23;;;;;;;14.73;6.90;;;9.00;99.90;;;;;;5089085;28;20238;-62
2021/03/22 10:02:54;;;;;;;18.13;6.97;;;9.30;99.90;;;;;;5089177;28;20231;-61
2021/03/22 10:05:25;;;;;;;17.17;6.73;;;9.30;99.90;;;;;;5088992;28;20188;-60
2021/03/22 10:08:14;;;;;;;17.57;7.43;;;9.00;99.90;;;;;;5088810;28;20254;-61
2021/03/22 10:10:50;;;;;;;15.87;6.93;;;8.40;99.90;;;;;;5088708;28;20332;-59
2021/03/22 10:13:20;;;;;;;13.53;6.83;;;8.20;99.90;;;;;;5088705;28;20722;-60
2021/03/22 10:15:53;;;;;;;15.50;7.23;;;8.40;99.90;;;;;;5092526;28;20274;-60
2021/03/22 10:18:24;;;;;;;13.17;6.77;;;8.70;99.90;;;;;;5092850;28;20994;-60
2021/03/22 10:21:01;;;;;;;13.37;6.83;;;8.50;99.90;;;;;;5092136;28;20249;-59
2021/03/22 10:23:32;;;;;;;15.30;6.40;;;8.20;99.90;;;;;;5091660;28;20200;-60
2021/03/22 10:26:07;;;;;;;14.27;6.93;;;8.00;99.90;;;;;;5092736;28;20268;-62
2021/03/22 10:28:34;;;;;;;17.87;7.10;;;7.80;99.90;;;;;;5092127;28;20224;-60
2021/03/22 10:31:04;;;;;;;21.97;7.10;;;8.10;99.90;;;;;;5092453;28;20223;-61
2021/03/22 10:33:32;;;;;;;17.77;7.37;;;8.50;99.90;;;;;;5092326;28;20279;-60
2021/03/22 10:36:02;;;;;;;17.70;6.90;;;8.70;99.90;;;;;;5092292;28;20580;-60
2021/03/22 10:38:31;;;;;;;12.70;6.00;;;8.80;99.90;;;;;;5092417;28;20192;-60
2021/03/22 10:41:00;;;;;;;16.47;6.70;;;8.70;99.90;;;;;;5092595;28;20230;-59
2021/03/22 10:43:32;;;;;;;11.90;6.23;;;8.60;99.90;;;;;;5092463;28;20205;-61
2021/03/22 10:46:13;;;;;;;13.67;6.03;;;8.70;99.90;;;;;;5092010;28;20184;-58
2021/03/22 10:48:40;;;;;;;12.87;6.43;;;9.00;99.90;;;;;;5092206;28;20197;-59
2021/03/22 10:51:16;;;;;;;12.83;6.23;;;9.10;99.90;;;;;;5092460;28;20232;-58
2021/03/22 10:53:55;;;;;;;14.33;5.80;;;9.00;99.90;;;;;;5071849;28;20268;-61
2021/03/22 10:56:30;;;;;;;11.57;5.97;;;8.70;99.90;;;;;;5071741;28;20185;-62
2021/03/22 10:59:02;;;;;;;15.47;6.33;;;8.90;99.90;;;;;;5084350;28;20196;-63
2021/03/22 11:01:34;;;;;;;14.90;6.63;;;9.40;99.90;;;;;;5091822;28;20278;-63
2021/03/22 11:04:04;;;;;;;17.27;5.37;;;9.70;99.90;;;;;;5092185;28;20216;-61
2021/03/22 11:06:36;;;;;;;15.60;5.70;;;9.40;99.90;;;;;;5091358;28;20192;-59
2021/03/22 11:09:07;;;;;;;13.33;5.50;;;9.20;99.90;;;;;;5091135;28;20223;-60
2021/03/22 11:11:34;;;;;;;13.73;5.90;;;9.10;99.90;;;;;;5090980;28;20236;-60
2021/03/22 11:14:06;;;;;;;18.30;6.03;;;8.90;99.90;;;;;;5091028;28;20200;-60
2021/03/22 11:16:35;;;;;;;10.13;4.63;;;8.90;99.90;;;;;;5092032;28;20223;-60
2021/03/22 11:19:11;;;;;;;15.13;5.57;;;8.80;99.90;;;;;;5097710;28;20643;-60
2021/03/22 11:21:40;;;;;;;13.73;5.20;;;8.70;99.90;;;;;;5095099;28;20227;-60
2021/03/22 11:24:16;;;;;;;14.07;5.50;;;8.50;99.90;;;;;;5091712;28;20200;-59
2021/03/22 11:26:57;;;;;;;15.97;5.53;;;8.60;99.90;;;;;;5091064;28;20191;-63
2021/03/22 11:29:25;;;;;;;11.00;5.20;;;8.50;99.90;;;;;;5091377;28;20276;-60
2021/03/22 11:31:58;;;;;;;13.07;6.70;;;8.60;99.90;;;;;;5091604;28;20206;-60
2021/03/22 11:34:29;;;;;;;12.23;5.60;;;8.70;99.90;;;;;;5091405;28;20212;-60
2021/03/22 11:37:08;;;;;;;14.37;5.40;;;8.90;99.90;;;;;;5091033;28;20191;-61
2021/03/22 11:39:38;;;;;;;12.97;5.47;;;8.80;99.90;;;;;;5091246;28;20676;-63
2021/03/22 11:42:20;;;;;;;12.07;5.70;;;8.70;99.90;;;;;;5091173;28;20226;-62
2021/03/22 11:44:48;;;;;;;12.03;5.77;;;8.60;99.90;;;;;;5091206;28;20237;-64
2021/03/22 11:47:39;;;;;;;15.10;5.03;;;8.70;99.90;;;;;;5090781;28;20287;-63
2021/03/22 11:50:27;;;;;;;12.43;5.70;;;9.00;99.90;;;;;;5091296;28;20210;-64
2021/03/22 11:53:07;;;;;;;13.33;4.97;;;9.30;99.90;;;;;;5069834;28;20238;-63
2021/03/22 11:55:39;;;;;;;8.90;4.10;;;9.60;99.90;;;;;;5070620;28;20213;-64
2021/03/22 11:58:23;;;;;;;7.43;4.17;;;9.80;99.90;;;;;;5070537;28;20189;-63
2021/03/22 12:00:51;;;;;;;11.27;4.80;;;9.70;99.90;;;;;;5070282;28;20189;-64
2021/03/22 12:03:26;;;;;;;12.77;5.97;;;9.80;99.90;;;;;;5070540;28;20208;-63
2021/03/22 12:06:09;;;;;;;10.07;5.07;;;9.60;99.90;;;;;;5070120;28;20675;-64
2021/03/22 12:08:39;;;;;;;11.33;5.30;;;9.10;99.90;;;;;;5069723;28;20204;-62
2021/03/22 12:11:09;;;;;;;11.07;4.90;;;8.70;99.90;;;;;;5070189;28;20256;-64
2021/03/22 12:13:36;;;;;;;13.13;5.27;;;8.70;99.90;;;;;;5070020;28;20200;-63
2021/03/22 12:16:06;;;;;;;10.67;5.17;;;8.90;99.90;;;;;;5069970;28;20228;-63
2021/03/22 12:18:36;;;;;;;11.63;5.77;;;9.10;99.90;;;;;;5085426;28;20207;-64
2021/03/22 12:21:08;;;;;;;11.57;4.60;;;9.30;99.90;;;;;;5090081;28;20743;-63
2021/03/22 12:23:35;;;;;;;13.07;4.80;;;9.40;99.90;;;;;;5089964;28;20185;-63
2021/03/22 12:26:02;;;;;;;12.63;4.90;;;9.30;99.90;;;;;;5089965;28;20352;-64
2021/03/22 12:28:29;;;;;;;13.53;4.93;;;9.20;99.90;;;;;;5089922;28;20226;-66
2021/03/22 12:30:56;;;;;;;10.97;4.97;;;9.20;99.90;;;;;;5089932;28;20239;-64
2021/03/22 12:33:28;;;;;;;12.93;6.00;;;9.40;99.90;;;;;;5089355;28;20204;-63
2021/03/22 12:35:56;;;;;;;11.27;4.60;;;9.40;99.90;;;;;;5089532;28;20231;-65
2021/03/22 12:38:24;;;;;;;11.40;4.63;;;9.30;99.90;;;;;;5089395;28;20290;-63
2021/03/22 12:40:51;;;;;;;13.67;4.43;;;9.20;99.90;;;;;;5089591;28;20638;-61
2021/03/22 12:43:23;;;;;;;8.70;4.50;;;9.40;99.90;;;;;;5089527;28;20204;-61
2021/03/22 12:45:51;;;;;;;10.70;5.40;;;9.50;99.90;;;;;;5089711;28;20247;-63
2021/03/22 12:48:18;;;;;;;9.67;4.50;;;9.40;99.90;;;;;;5089567;28;20663;-59
2021/03/22 12:50:48;;;;;;;11.97;5.57;;;9.20;99.90;;;;;;5089475;28;20204;-58
2021/03/22 12:53:16;;;;;;;11.03;5.30;;;9.00;99.90;;;;;;5088577;28;20231;-59
2021/03/22 12:55:43;;;;;;;9.60;4.80;;;8.80;99.90;;;;;;5089315;28;20725;-60
2021/03/22 12:58:14;;;;;;;12.47;4.67;;;8.80;99.90;;;;;;5089499;28;20290;-59
2021/03/22 13:00:42;;;;;;;9.40;4.20;;;9.20;99.90;;;;;;5070128;28;20259;-59
2021/03/22 13:03:11;;;;;;;11.87;5.23;;;9.40;99.90;;;;;;5069571;28;20205;-59
2021/03/22 13:05:38;;;;;;;10.17;4.83;;;9.70;99.90;;;;;;5069433;28;20200;-59
2021/03/22 13:08:07;;;;;;;9.47;4.83;;;9.90;99.90;;;;;;5069069;28;20287;-59
2021/03/22 13:10:34;;;;;;;8.80;4.10;;;10.00;99.90;;;;;;5068942;28;20294;-59
2021/03/22 13:13:02;;;;;;;9.80;4.13;;;10.30;99.90;;;;;;5069243;28;20208;-59
2021/03/22 13:15:34;;;;;;;10.37;4.60;;;10.60;99.90;;;;;;5069155;28;20751;-60
2021/03/22 13:18:05;;;;;;;10.10;4.73;;;10.90;99.90;;;;;;5069462;28;20189;-59
2021/03/22 13:20:32;;;;;;;9.73;4.73;;;11.30;99.90;;;;;;5068892;28;20185;-59